createdAt,value
2022-12-14T00:01:49.442Z,36.35
2022-12-14T00:04:17.888Z,34.72
2022-12-14T00:06:46.851Z,34.75
2022-12-14T00:09:15.230Z,31.98
2022-12-14T00:11:43.226Z,34.45
2022-12-14T00:14:11.185Z,32.33
2022-12-14T00:16:39.063Z,33.33
2022-12-14T00:19:07.081Z,34.25
2022-12-14T00:21:35.239Z,33.05
2022-12-14T00:24:04.423Z,33.17
2022-12-14T00:26:33.245Z,30.02
2022-12-14T00:29:02.371Z,29.80
2022-12-14T00:31:31.605Z,29.33
2022-12-14T00:34:01.467Z,30.63
2022-12-14T00:36:31.747Z,31.35
2022-12-14T00:38:59.923Z,29.15
2022-12-14T00:41:27.928Z,33.22
2022-12-14T00:43:56.273Z,29.35
2022-12-14T00:46:25.311Z,29.75
2022-12-14T00:48:53.350Z,28.95
2022-12-14T00:51:21.850Z,31.13
2022-12-14T00:53:50.416Z,30.70
2022-12-14T00:56:19.208Z,29.58
2022-12-14T00:58:52.780Z,28.92
2022-12-14T01:01:22.568Z,30.52
2022-12-14T01:03:51.084Z,30.33
2022-12-14T01:06:21.828Z,28.42
2022-12-14T01:08:50.697Z,30.23
2022-12-14T01:11:18.835Z,28.10
2022-12-14T01:13:49.373Z,29.10
2022-12-14T01:16:18.344Z,28.42
2022-12-14T01:18:46.529Z,29.67
2022-12-14T01:21:19.422Z,28.85
2022-12-14T01:23:51.315Z,29.25
2022-12-14T01:26:19.650Z,30.45
2022-12-14T01:28:53.697Z,30.77
2022-12-14T01:31:28.748Z,25.58
2022-12-14T01:33:57.387Z,25.85
2022-12-14T01:36:30.926Z,24.92
2022-12-14T01:39:06.231Z,26.40
2022-12-14T01:46:50.999Z,24.40
2022-12-14T01:49:40.188Z,20.30
2022-12-14T01:52:25.976Z,24.83
2022-12-14T01:55:03.182Z,22.27
2022-12-14T01:57:49.845Z,23.67
2022-12-14T02:00:18.256Z,21.73
2022-12-14T02:03:08.381Z,22.02
2022-12-14T02:05:41.517Z,22.83
2022-12-14T02:08:12.080Z,23.05
2022-12-14T02:10:40.257Z,22.88
2022-12-14T02:13:14.973Z,26.15
2022-12-14T02:15:44.377Z,29.92
2022-12-14T02:18:33.174Z,31.08
2022-12-14T02:21:10.930Z,32.15
2022-12-14T02:24:03.333Z,26.13
2022-12-14T02:27:22.242Z,29.38
2022-12-14T02:29:56.297Z,30.73
2022-12-14T02:32:57.265Z,30.15
2022-12-14T02:35:40.318Z,28.75
2022-12-14T02:38:20.011Z,25.83
2022-12-14T02:41:07.850Z,29.42
2022-12-14T02:43:51.523Z,27.20
2022-12-14T02:48:59.075Z,26.40
2022-12-14T02:51:36.454Z,25.83
2022-12-14T02:54:17.081Z,27.60
2022-12-14T02:56:53.354Z,30.67
2022-12-14T02:59:23.619Z,33.72
2022-12-14T03:01:53.007Z,39.75
2022-12-14T03:04:22.240Z,43.70
2022-12-14T03:07:02.778Z,41.22
2022-12-14T03:09:32.482Z,43.30
2022-12-14T03:12:13.636Z,45.95
2022-12-14T03:14:48.332Z,46.45
2022-12-14T03:17:28.184Z,45.08
2022-12-14T03:20:20.734Z,44.20
2022-12-14T03:23:00.297Z,43.58
2022-12-14T03:25:52.101Z,50.00
2022-12-14T03:28:45.854Z,45.47
2022-12-14T03:31:40.001Z,56.47
2022-12-14T03:34:14.344Z,48.83
2022-12-14T03:36:48.805Z,48.30
2022-12-14T03:39:25.701Z,47.58
2022-12-14T03:42:20.124Z,41.17
2022-12-14T03:45:18.218Z,43.05
2022-12-14T03:48:04.559Z,47.00
2022-12-14T03:50:45.902Z,49.35
2022-12-14T03:53:30.809Z,50.30
2022-12-14T03:56:09.708Z,50.53
2022-12-14T03:58:57.293Z,51.38
2022-12-14T04:01:53.562Z,43.22
2022-12-14T04:04:47.790Z,42.42
2022-12-14T04:07:26.310Z,38.80
2022-12-14T04:10:04.633Z,42.25
2022-12-14T04:12:57.808Z,45.50
2022-12-14T04:15:50.199Z,42.47
2022-12-14T04:19:00.532Z,38.33
2022-12-14T04:21:48.023Z,39.90
2022-12-14T04:25:07.634Z,42.53
2022-12-14T04:27:44.659Z,45.08
2022-12-14T04:30:14.543Z,49.28
2022-12-14T04:32:58.299Z,48.05
2022-12-14T04:35:32.006Z,47.90
2022-12-14T04:38:35.169Z,46.17
2022-12-14T04:41:09.538Z,46.80
2022-12-14T04:43:45.067Z,49.35
2022-12-14T04:46:25.158Z,46.75
2022-12-14T04:49:17.158Z,49.60
2022-12-14T04:51:50.894Z,46.38
2022-12-14T04:54:24.869Z,40.20
2022-12-14T04:57:18.787Z,42.33
2022-12-14T04:59:49.367Z,40.40
2022-12-14T05:02:34.348Z,42.78
2022-12-14T05:05:11.992Z,40.53
2022-12-14T05:08:17.799Z,40.35
2022-12-14T05:11:05.233Z,40.17
2022-12-14T05:13:48.870Z,43.60
2022-12-14T05:16:22.526Z,41.13
2022-12-14T05:21:38.273Z,42.10
2022-12-14T05:24:07.216Z,47.20
2022-12-14T05:26:35.936Z,47.92
2022-12-14T05:29:03.909Z,43.60
2022-12-14T05:31:32.725Z,46.10
2022-12-14T05:34:00.603Z,43.60
2022-12-14T05:36:29.184Z,43.97
2022-12-14T05:38:57.764Z,46.83
2022-12-14T05:41:25.987Z,46.92
2022-12-14T05:43:54.461Z,44.05
2022-12-14T05:46:47.441Z,44.95
2022-12-14T05:49:15.538Z,46.37
2022-12-14T05:51:44.125Z,45.45
2022-12-14T05:54:12.035Z,48.92
2022-12-14T05:56:41.095Z,67.60
2022-12-14T05:59:15.533Z,97.68
2022-12-14T06:01:45.717Z,55.78
2022-12-14T06:04:18.558Z,68.30
2022-12-14T06:06:47.124Z,54.75
2022-12-14T06:09:16.813Z,49.60
2022-12-14T06:11:46.081Z,46.65
2022-12-14T06:14:14.538Z,37.38
2022-12-14T06:16:44.688Z,36.53
2022-12-14T06:19:14.405Z,36.67
2022-12-14T06:21:43.735Z,28.73
2022-12-14T06:24:13.872Z,39.22
2022-12-14T06:26:42.804Z,36.17
2022-12-14T06:29:16.598Z,34.65
2022-12-14T06:31:44.619Z,38.28
2022-12-14T06:34:13.586Z,37.28
2022-12-14T06:36:43.624Z,38.67
2022-12-14T06:39:14.439Z,38.70
2022-12-14T06:41:43.169Z,37.90
2022-12-14T06:44:14.459Z,29.67
2022-12-14T06:46:43.091Z,25.67
2022-12-14T06:49:16.877Z,28.13
2022-12-14T06:51:45.296Z,29.00
2022-12-14T06:54:13.944Z,28.95
2022-12-14T06:56:44.351Z,30.15
2022-12-14T06:59:13.531Z,29.30
2022-12-14T07:01:42.595Z,28.20
2022-12-14T07:04:11.352Z,26.92
2022-12-14T07:06:41.201Z,24.23
2022-12-14T07:09:13.099Z,27.77
2022-12-14T07:11:41.603Z,29.13
2022-12-14T07:14:17.470Z,27.70
2022-12-14T07:16:48.519Z,25.98
2022-12-14T07:19:18.315Z,26.65
2022-12-14T07:21:46.386Z,29.60
2022-12-14T07:24:14.693Z,28.95
2022-12-14T07:26:42.639Z,29.60
2022-12-14T07:29:12.330Z,31.13
2022-12-14T07:31:40.602Z,28.30
2022-12-14T07:34:12.788Z,31.45
2022-12-14T07:36:41.032Z,29.35
2022-12-14T07:39:16.041Z,28.05
2022-12-14T07:41:46.023Z,25.42
2022-12-14T07:44:24.339Z,26.42
2022-12-14T07:46:54.261Z,26.38
2022-12-14T07:49:22.321Z,23.33
2022-12-14T07:51:52.395Z,23.63
2022-12-14T07:54:21.334Z,25.10
2022-12-14T07:56:51.071Z,25.48
2022-12-14T07:59:19.510Z,21.50
2022-12-14T08:01:47.640Z,25.15
2022-12-14T08:04:18.681Z,22.60
2022-12-14T08:06:47.830Z,23.17
2022-12-14T08:09:17.462Z,23.92
2022-12-14T08:11:45.486Z,22.13
2022-12-14T08:14:17.536Z,17.00
2022-12-14T08:16:47.166Z,13.48
2022-12-14T08:19:17.091Z,15.77
2022-12-14T08:21:46.146Z,13.57
2022-12-14T08:24:17.120Z,15.82
2022-12-14T08:26:49.327Z,19.33
2022-12-14T08:29:19.117Z,19.38
2022-12-14T08:31:47.274Z,22.13
2022-12-14T08:34:22.033Z,20.42
2022-12-14T08:36:51.481Z,15.10
2022-12-14T08:39:20.242Z,19.48
2022-12-14T08:41:48.325Z,12.45
2022-12-14T08:44:17.601Z,10.73
2022-12-14T08:46:46.020Z,14.23
2022-12-14T08:49:15.182Z,16.30
2022-12-14T08:51:43.465Z,38.25
2022-12-14T08:54:11.518Z,21.60
2022-12-14T08:56:39.663Z,13.80
2022-12-14T08:59:08.509Z,15.40
2022-12-14T09:01:36.545Z,13.02
2022-12-14T09:04:07.966Z,13.95
2022-12-14T09:06:39.287Z,7.95
2022-12-14T09:09:15.692Z,11.05
2022-12-14T09:11:45.629Z,7.35
2022-12-14T09:14:14.138Z,8.18
2022-12-14T09:16:42.778Z,12.45
2022-12-14T09:19:11.318Z,11.30
2022-12-14T09:21:39.992Z,15.30
2022-12-14T09:24:18.271Z,20.73
2022-12-14T09:26:47.595Z,18.08
2022-12-14T09:29:17.588Z,19.63
2022-12-14T09:31:45.769Z,23.85
2022-12-14T09:34:14.495Z,27.13
2022-12-14T09:36:43.241Z,23.40
2022-12-14T09:39:14.958Z,21.42
2022-12-14T09:41:50.699Z,18.77
2022-12-14T09:44:25.102Z,14.85
2022-12-14T09:47:15.932Z,16.95
2022-12-14T09:49:51.635Z,16.75
2022-12-14T09:52:24.158Z,14.98
2022-12-14T09:54:55.101Z,15.60
2022-12-14T09:57:33.532Z,13.90
2022-12-14T10:00:01.973Z,16.77
2022-12-14T10:02:43.926Z,16.20
2022-12-14T10:05:30.145Z,13.68
2022-12-14T10:08:23.308Z,11.02
2022-12-14T10:11:03.632Z,9.80
2022-12-14T10:14:08.207Z,2.85
2022-12-14T10:16:59.233Z,1.35
2022-12-14T10:19:42.697Z,3.00
2022-12-14T10:24:54.995Z,2.05
2022-12-14T10:27:25.603Z,3.03
2022-12-14T10:29:59.689Z,2.53
2022-12-14T10:32:34.488Z,2.25
2022-12-14T10:35:38.841Z,2.08
2022-12-14T10:38:21.236Z,2.45
2022-12-14T10:40:50.762Z,2.63
2022-12-14T10:43:23.965Z,1.17
2022-12-14T10:46:33.380Z,1.30
2022-12-14T10:49:17.785Z,1.50
2022-12-14T10:51:54.773Z,1.33
2022-12-14T10:54:30.685Z,1.02
2022-12-14T10:56:58.757Z,1.05
2022-12-14T10:59:38.786Z,1.10
2022-12-14T11:02:17.253Z,1.30
2022-12-14T11:04:53.150Z,1.50
2022-12-14T11:07:27.785Z,2.53
2022-12-14T11:10:22.496Z,1.58
2022-12-14T11:13:20.748Z,2.05
2022-12-14T11:15:53.065Z,1.88
2022-12-14T11:18:31.524Z,2.15
2022-12-14T11:21:03.391Z,1.35
2022-12-14T11:23:38.232Z,0.77
2022-12-14T11:26:32.887Z,0.75
2022-12-14T11:29:03.959Z,0.75
2022-12-14T11:31:45.867Z,2.50
2022-12-14T11:34:37.938Z,1.75
2022-12-14T11:37:23.013Z,2.75
2022-12-14T11:39:54.359Z,1.98
2022-12-14T11:42:23.412Z,1.77
2022-12-14T11:44:52.305Z,3.28
2022-12-14T11:47:29.253Z,2.47
2022-12-14T11:49:57.996Z,3.30
2022-12-14T11:52:47.279Z,2.60
2022-12-14T11:55:26.756Z,3.22
2022-12-14T11:57:59.451Z,1.48
2022-12-14T12:00:49.799Z,1.20
2022-12-14T12:03:26.610Z,1.75
2022-12-14T12:06:07.800Z,1.90
2022-12-14T12:08:38.249Z,3.03
2022-12-14T12:11:28.942Z,2.88
2022-12-14T12:14:04.118Z,2.47
2022-12-14T12:16:33.368Z,3.10
2022-12-14T12:19:11.670Z,3.90
2022-12-14T12:21:45.037Z,2.15
2022-12-14T12:25:08.324Z,3.03
2022-12-14T12:27:31.918Z,1.45
2022-12-14T12:30:14.177Z,1.65
2022-12-14T12:32:49.964Z,1.95
2022-12-14T12:35:30.367Z,0.95
2022-12-14T12:38:10.029Z,1.75
2022-12-14T12:40:54.548Z,1.02
2022-12-14T12:43:30.441Z,2.78
2022-12-14T12:46:19.025Z,0.60
2022-12-14T12:48:57.870Z,1.45
2022-12-14T12:51:31.231Z,1.33
2022-12-14T12:54:46.081Z,1.52
2022-12-14T12:57:15.757Z,1.13
2022-12-14T12:59:48.551Z,3.25
2022-12-14T13:02:29.430Z,2.33
2022-12-14T13:05:10.852Z,1.55
2022-12-14T13:08:24.029Z,21.75
2022-12-14T13:13:47.014Z,3.20
2022-12-14T13:16:37.852Z,2.08
2022-12-14T13:19:48.059Z,5.28
2022-12-14T13:22:05.885Z,1.88
2022-12-14T13:24:37.097Z,3.85
2022-12-14T13:27:17.927Z,2.17
2022-12-14T13:30:23.566Z,3.33
2022-12-14T13:33:17.399Z,2.17
2022-12-14T13:36:15.996Z,1.60
2022-12-14T13:38:50.808Z,1.83
2022-12-14T13:41:42.078Z,2.00
2022-12-14T13:44:41.887Z,2.85
2022-12-14T13:47:17.865Z,3.63
2022-12-14T13:50:26.960Z,3.65
2022-12-14T13:52:46.804Z,3.63
2022-12-14T13:55:35.479Z,3.10
2022-12-14T13:58:21.032Z,4.88
2022-12-14T14:00:56.119Z,2.13
2022-12-14T14:03:36.267Z,2.47
2022-12-14T14:06:12.540Z,3.88
2022-12-14T14:09:03.340Z,4.57
2022-12-14T14:11:44.025Z,4.18
2022-12-14T14:14:44.765Z,3.30
2022-12-14T14:17:43.622Z,6.72
2022-12-14T14:20:30.515Z,4.05
2022-12-14T14:23:16.182Z,2.55
2022-12-14T14:25:51.695Z,1.70
2022-12-14T14:28:23.171Z,3.25
2022-12-14T14:30:54.352Z,1.98
2022-12-14T14:33:45.410Z,5.55
2022-12-14T14:36:23.680Z,3.85
2022-12-14T14:38:52.898Z,3.65
2022-12-14T14:41:43.446Z,3.67
2022-12-14T14:44:26.189Z,5.80
2022-12-14T14:46:54.328Z,4.00
2022-12-14T14:49:42.661Z,5.10
2022-12-14T14:52:37.747Z,4.22
2022-12-14T14:58:29.231Z,5.35
2022-12-14T15:01:15.696Z,7.22
2022-12-14T15:04:06.357Z,5.47
2022-12-14T15:06:43.181Z,7.10
2022-12-14T15:09:17.515Z,6.57
2022-12-14T15:12:01.328Z,6.30
2022-12-14T15:14:48.246Z,6.75
2022-12-14T15:17:21.794Z,5.72
2022-12-14T15:20:03.311Z,8.10
2022-12-14T15:22:42.704Z,9.25
2022-12-14T15:25:26.748Z,8.57
2022-12-14T15:27:57.893Z,7.20
2022-12-14T15:30:28.151Z,9.10
2022-12-14T15:33:08.545Z,9.13
2022-12-14T15:35:40.271Z,11.38
2022-12-14T15:38:17.137Z,6.22
2022-12-14T15:41:22.912Z,6.47
2022-12-14T15:43:59.787Z,6.50
2022-12-14T15:46:33.834Z,10.30
2022-12-14T15:49:08.911Z,11.07
2022-12-14T15:51:40.302Z,8.40
2022-12-14T15:54:20.247Z,7.53
2022-12-14T15:56:56.932Z,8.07
2022-12-14T15:59:33.484Z,8.00
2022-12-14T16:02:24.147Z,6.32
2022-12-14T16:04:57.231Z,7.97
2022-12-14T16:07:38.704Z,7.75
2022-12-14T16:10:33.185Z,7.05
2022-12-14T16:13:31.011Z,5.13
2022-12-14T16:16:07.256Z,3.58
2022-12-14T16:18:36.227Z,4.70
2022-12-14T16:21:53.613Z,3.70
2022-12-14T16:24:26.037Z,4.43
2022-12-14T16:29:33.584Z,6.03
2022-12-14T16:32:07.352Z,7.32
2022-12-14T16:34:35.533Z,9.10
2022-12-14T16:37:31.718Z,7.40
2022-12-14T16:39:54.242Z,6.72
2022-12-14T16:42:25.024Z,10.52
2022-12-14T16:44:56.850Z,12.65
2022-12-14T16:48:13.828Z,10.75
2022-12-14T16:50:56.930Z,10.48
2022-12-14T16:53:31.742Z,9.63
2022-12-14T16:56:07.647Z,9.48
2022-12-14T16:58:36.642Z,12.23
2022-12-14T17:01:08.122Z,11.85
2022-12-14T17:03:37.895Z,9.57
2022-12-14T17:06:07.705Z,10.55
2022-12-14T17:08:35.822Z,10.88
2022-12-14T17:11:03.915Z,10.75
2022-12-14T17:13:32.610Z,12.10
2022-12-14T17:16:02.278Z,10.98
2022-12-14T17:18:37.598Z,10.95
2022-12-14T17:21:07.232Z,8.80
2022-12-14T17:23:39.022Z,10.25
2022-12-14T17:26:12.510Z,8.30
2022-12-14T17:28:40.667Z,9.77
2022-12-14T17:31:11.221Z,9.90
2022-12-14T17:33:40.088Z,10.93
2022-12-14T17:36:08.235Z,11.68
2022-12-14T17:39:01.361Z,13.88
2022-12-14T17:41:34.256Z,10.95
2022-12-14T17:44:03.233Z,12.35
2022-12-14T17:46:31.681Z,12.27
2022-12-14T17:49:05.983Z,11.45
2022-12-14T17:51:41.743Z,11.63
2022-12-14T17:54:15.694Z,14.55
2022-12-14T17:56:44.912Z,11.68
2022-12-14T17:59:13.291Z,11.70
2022-12-14T18:01:41.769Z,14.02
2022-12-14T18:04:09.923Z,12.10
2022-12-14T18:06:37.923Z,15.50
2022-12-14T18:09:08.060Z,15.85
2022-12-14T18:11:39.186Z,8.70
2022-12-14T18:14:15.591Z,11.38
2022-12-14T18:16:43.580Z,15.73
2022-12-14T18:19:12.283Z,9.27
2022-12-14T18:21:40.370Z,9.93
2022-12-14T18:24:11.890Z,8.88
2022-12-14T18:26:40.230Z,7.10
2022-12-14T18:29:08.239Z,8.65
2022-12-14T18:31:38.090Z,10.43
2022-12-14T18:34:06.685Z,12.23
2022-12-14T18:36:34.603Z,8.23
2022-12-14T18:39:02.531Z,7.60
2022-12-14T18:41:31.281Z,10.05
2022-12-14T18:44:00.700Z,11.48
2022-12-14T18:46:28.727Z,10.50
2022-12-14T18:48:56.699Z,13.05
2022-12-14T18:51:26.770Z,14.68
2022-12-14T18:53:56.763Z,10.70
2022-12-14T18:56:28.241Z,10.40
2022-12-14T18:58:56.443Z,11.68
2022-12-14T19:01:25.135Z,18.95
2022-12-14T19:03:53.504Z,21.67
2022-12-14T19:09:13.611Z,15.18
2022-12-14T19:11:42.402Z,13.20
2022-12-14T19:14:11.307Z,10.30
2022-12-14T19:16:39.436Z,14.63
2022-12-14T19:19:07.559Z,13.68
2022-12-14T19:21:40.520Z,10.85
2022-12-14T19:24:08.755Z,10.52
2022-12-14T19:26:38.793Z,7.63
2022-12-14T19:29:06.814Z,10.82
2022-12-14T19:31:34.907Z,9.15
2022-12-14T19:34:02.976Z,8.77
2022-12-14T19:36:31.793Z,8.18
2022-12-14T19:39:00.639Z,6.22
2022-12-14T19:41:28.864Z,9.10
2022-12-14T19:43:57.983Z,12.50
2022-12-14T19:46:26.660Z,11.60
2022-12-14T19:48:56.070Z,9.25
2022-12-14T19:51:24.282Z,10.63
2022-12-14T19:53:54.167Z,16.60
2022-12-14T19:56:22.546Z,16.10
2022-12-14T19:58:50.650Z,18.23
2022-12-14T20:01:19.398Z,13.45
2022-12-14T20:03:49.288Z,13.05
2022-12-14T20:06:17.593Z,8.07
2022-12-14T20:08:49.289Z,6.47
2022-12-14T20:11:17.644Z,5.10
2022-12-14T20:13:46.153Z,3.95
2022-12-14T20:16:17.841Z,5.35
2022-12-14T20:18:46.706Z,5.82
2022-12-14T20:26:22.816Z,5.47
2022-12-14T20:28:53.545Z,4.88
2022-12-14T20:31:22.754Z,5.45
2022-12-14T20:33:51.051Z,4.00
2022-12-14T20:36:19.465Z,3.92
2022-12-14T20:38:49.135Z,4.40
2022-12-14T20:41:17.538Z,6.97
2022-12-14T20:43:45.822Z,7.13
2022-12-14T20:46:36.958Z,6.40
2022-12-14T20:49:32.921Z,4.55
2022-12-14T20:52:01.392Z,6.13
2022-12-14T20:54:29.556Z,5.20
2022-12-14T20:56:57.808Z,3.80
2022-12-14T20:59:27.622Z,4.85
2022-12-14T21:01:57.022Z,2.65
2022-12-14T21:04:26.051Z,2.70
2022-12-14T21:06:54.147Z,3.47
2022-12-14T21:09:22.140Z,1.80
2022-12-14T21:12:10.428Z,4.43
2022-12-14T21:14:42.704Z,4.57
2022-12-14T21:17:11.153Z,3.67
2022-12-14T21:19:39.982Z,3.30
2022-12-14T21:22:13.068Z,3.38
2022-12-14T21:27:31.306Z,3.45
2022-12-14T21:30:00.701Z,3.22
2022-12-14T21:32:29.507Z,3.15
2022-12-14T21:34:57.681Z,3.20
2022-12-14T21:37:28.602Z,2.42
2022-12-14T21:39:56.940Z,1.98
2022-12-14T21:42:25.405Z,2.10
2022-12-14T21:44:54.383Z,3.50
2022-12-14T21:47:25.641Z,2.10
2022-12-14T21:49:54.815Z,2.65
2022-12-14T21:52:25.169Z,3.95
2022-12-14T21:54:53.182Z,4.68
2022-12-14T21:57:49.469Z,5.90
2022-12-14T22:00:19.287Z,4.30
2022-12-14T22:02:48.096Z,3.45
2022-12-14T22:05:16.763Z,4.88
2022-12-14T22:07:44.976Z,3.40
2022-12-14T22:10:13.188Z,2.55
2022-12-14T22:12:41.138Z,4.07
2022-12-14T22:15:10.563Z,3.47
2022-12-14T22:17:38.480Z,3.47
2022-12-14T22:20:07.430Z,2.53
2022-12-14T22:22:35.338Z,2.42
2022-12-14T22:25:03.947Z,2.75
2022-12-14T22:27:32.273Z,1.15
2022-12-14T22:30:00.671Z,2.03
2022-12-14T22:32:28.704Z,1.33
2022-12-14T22:34:56.642Z,4.63
2022-12-14T22:37:24.912Z,1.67
2022-12-14T22:39:52.775Z,4.68
2022-12-14T22:42:20.771Z,5.28
2022-12-14T22:44:49.206Z,4.32
2022-12-14T22:47:17.685Z,3.35
2022-12-14T22:49:45.868Z,5.45
2022-12-14T22:52:14.062Z,8.80
2022-12-14T22:54:42.305Z,9.25
2022-12-14T22:57:17.348Z,5.88
2022-12-14T23:00:15.944Z,5.30
2022-12-14T23:02:48.096Z,6.80
2022-12-14T23:05:17.014Z,3.57
2022-12-14T23:07:44.984Z,3.50
2022-12-14T23:10:31.268Z,3.03
2022-12-14T23:13:17.587Z,2.20
2022-12-14T23:16:04.327Z,3.00
2022-12-14T23:18:51.182Z,5.70
2022-12-14T23:21:37.794Z,4.20
2022-12-14T23:24:26.088Z,5.20
2022-12-14T23:27:13.402Z,9.40
2022-12-14T23:29:59.918Z,4.55
2022-12-14T23:32:46.290Z,6.97
2022-12-14T23:35:32.575Z,6.30
2022-12-14T23:38:25.537Z,7.20
2022-12-14T23:41:17.936Z,7.03
2022-12-14T23:44:04.725Z,5.13
2022-12-14T23:46:51.661Z,4.22
2022-12-14T23:49:38.016Z,6.72
2022-12-14T23:52:24.492Z,4.88
2022-12-14T23:55:11.479Z,5.47
2022-12-14T23:57:58.739Z,4.18
